createdAt,value
2022-12-26T00:01:55.590Z,59.65
2022-12-26T00:04:49.383Z,59.63
2022-12-26T00:07:08.653Z,60.11
2022-12-26T00:09:35.161Z,60.09
2022-12-26T00:12:01.721Z,60.50
2022-12-26T00:14:28.420Z,60.04
2022-12-26T00:16:54.820Z,59.99
2022-12-26T00:19:21.307Z,60.11
2022-12-26T00:21:47.750Z,60.52
2022-12-26T00:24:14.166Z,60.55
2022-12-26T00:26:40.634Z,59.99
2022-12-26T00:29:07.038Z,60.28
2022-12-26T00:31:34.450Z,60.15
2022-12-26T00:34:01.280Z,60.68
2022-12-26T00:36:29.828Z,60.56
2022-12-26T00:38:57.164Z,60.16
2022-12-26T00:41:23.827Z,60.30
2022-12-26T00:43:50.667Z,60.02
2022-12-26T00:46:17.940Z,60.15
2022-12-26T00:48:44.506Z,60.37
2022-12-26T00:51:10.963Z,59.94
2022-12-26T00:53:37.356Z,59.72
2022-12-26T00:56:04.151Z,59.59
2022-12-26T00:58:30.626Z,59.64
2022-12-26T01:01:05.443Z,59.20
2022-12-26T01:03:31.992Z,59.28
2022-12-26T01:05:58.501Z,58.96
2022-12-26T01:08:25.157Z,58.88
2022-12-26T01:10:52.064Z,59.13
2022-12-26T01:13:18.454Z,59.14
2022-12-26T01:15:52.103Z,59.08
2022-12-26T01:18:18.606Z,58.54
2022-12-26T01:20:45.011Z,58.94
2022-12-26T01:23:11.448Z,58.75
2022-12-26T01:26:17.451Z,58.76
2022-12-26T01:28:25.347Z,58.61
2022-12-26T01:30:51.724Z,58.86
2022-12-26T01:33:18.212Z,58.79
2022-12-26T01:35:51.485Z,58.67
2022-12-26T01:38:18.049Z,58.89
2022-12-26T01:40:44.983Z,58.75
2022-12-26T01:43:12.549Z,58.53
2022-12-26T01:45:39.451Z,58.85
2022-12-26T01:48:12.911Z,58.42
2022-12-26T01:50:44.506Z,58.67
2022-12-26T01:53:31.231Z,58.41
2022-12-26T01:56:02.160Z,58.70
2022-12-26T01:58:32.377Z,58.57
2022-12-26T02:00:59.215Z,58.25
2022-12-26T02:03:44.290Z,58.49
2022-12-26T02:06:12.607Z,58.53
2022-12-26T02:08:39.951Z,58.53
2022-12-26T02:11:09.558Z,58.66
2022-12-26T02:13:37.142Z,58.55
2022-12-26T02:16:05.710Z,58.42
2022-12-26T02:18:32.470Z,58.68
2022-12-26T02:21:06.176Z,58.65
2022-12-26T02:23:35.665Z,58.66
2022-12-26T02:26:21.033Z,58.53
2022-12-26T02:29:05.886Z,58.44
2022-12-26T02:31:40.707Z,58.79
2022-12-26T02:34:13.875Z,58.76
2022-12-26T02:36:43.067Z,58.77
2022-12-26T02:39:44.093Z,58.89
2022-12-26T02:42:26.313Z,58.57
2022-12-26T02:45:13.722Z,58.77
2022-12-26T02:47:58.995Z,58.66
2022-12-26T02:50:56.387Z,58.89
2022-12-26T02:53:44.374Z,58.58
2022-12-26T02:56:42.209Z,58.77
2022-12-26T02:59:55.614Z,58.85
2022-12-26T03:02:49.327Z,58.49
2022-12-26T03:05:40.974Z,58.58
2022-12-26T03:08:29.172Z,58.54
2022-12-26T03:11:15.320Z,58.79
2022-12-26T03:13:42.784Z,58.40
2022-12-26T03:16:29.266Z,58.71
2022-12-26T03:19:00.593Z,58.60
2022-12-26T03:21:29.163Z,58.42
2022-12-26T03:23:56.731Z,58.71
2022-12-26T03:26:42.008Z,58.59
2022-12-26T03:29:31.977Z,58.78
2022-12-26T03:31:59.017Z,58.44
2022-12-26T03:34:25.555Z,58.44
2022-12-26T03:37:08.939Z,58.46
2022-12-26T03:39:54.131Z,58.68
2022-12-26T03:42:55.452Z,58.75
2022-12-26T03:45:59.695Z,58.65
2022-12-26T03:48:44.850Z,58.46
2022-12-26T03:51:34.361Z,58.77
2022-12-26T03:54:31.640Z,58.72
2022-12-26T03:57:22.908Z,58.59
2022-12-26T04:00:11.660Z,58.44
2022-12-26T04:02:58.109Z,58.36
2022-12-26T04:05:43.559Z,58.51
2022-12-26T04:08:32.874Z,58.65
2022-12-26T04:11:18.510Z,58.76
2022-12-26T04:14:07.062Z,58.47
2022-12-26T04:16:57.855Z,58.39
2022-12-26T04:19:27.115Z,58.70
2022-12-26T04:22:12.381Z,58.35
2022-12-26T04:25:09.275Z,58.51
2022-12-26T04:27:54.586Z,58.37
2022-12-26T04:30:39.649Z,58.72
2022-12-26T04:33:36.790Z,58.49
2022-12-26T04:36:25.229Z,58.38
2022-12-26T04:39:13.472Z,58.68
2022-12-26T04:41:59.950Z,58.50
2022-12-26T04:44:27.566Z,58.52
2022-12-26T04:46:54.432Z,58.61
2022-12-26T04:49:39.387Z,58.47
2022-12-26T04:52:08.191Z,58.47
2022-12-26T04:54:34.743Z,58.64
2022-12-26T04:57:01.201Z,58.54
2022-12-26T04:59:27.643Z,58.91
2022-12-26T05:02:12.992Z,58.65
2022-12-26T05:04:58.230Z,58.85
2022-12-26T05:07:46.319Z,59.01
2022-12-26T05:10:23.596Z,58.97
2022-12-26T05:12:50.091Z,58.87
2022-12-26T05:15:16.553Z,58.65
2022-12-26T05:18:01.804Z,58.98
2022-12-26T05:20:46.350Z,59.05
2022-12-26T05:23:36.810Z,58.97
2022-12-26T05:26:22.447Z,59.26
2022-12-26T05:28:53.364Z,59.02
2022-12-26T05:31:19.803Z,59.00
2022-12-26T05:34:04.921Z,58.99
2022-12-26T05:36:34.761Z,58.81
2022-12-26T05:39:02.098Z,58.95
2022-12-26T05:41:28.677Z,59.13
2022-12-26T05:43:55.095Z,58.81
2022-12-26T05:46:21.771Z,58.92
2022-12-26T05:48:48.286Z,58.96
2022-12-26T05:51:14.787Z,59.06
2022-12-26T05:53:41.233Z,59.22
2022-12-26T05:56:12.079Z,58.88
2022-12-26T05:58:38.719Z,59.23
2022-12-26T06:01:11.071Z,59.05
2022-12-26T06:03:38.511Z,59.09
2022-12-26T06:06:05.651Z,59.39
2022-12-26T06:08:32.544Z,58.92
2022-12-26T06:10:59.094Z,59.19
2022-12-26T06:13:25.483Z,59.02
2022-12-26T06:15:51.959Z,58.91
2022-12-26T06:18:18.404Z,58.95
2022-12-26T06:20:44.837Z,59.29
2022-12-26T06:23:11.320Z,58.92
2022-12-26T06:25:37.798Z,58.85
2022-12-26T06:28:04.287Z,59.23
2022-12-26T06:30:30.690Z,58.90
2022-12-26T06:32:57.160Z,59.21
2022-12-26T06:35:23.575Z,58.99
2022-12-26T06:37:50.001Z,59.44
2022-12-26T06:40:16.512Z,59.08
2022-12-26T06:42:42.894Z,59.13
2022-12-26T06:45:09.670Z,58.99
2022-12-26T06:47:36.100Z,59.21
2022-12-26T06:50:02.551Z,59.14
2022-12-26T06:52:29.136Z,58.71
2022-12-26T06:54:55.540Z,58.58
2022-12-26T06:57:22.029Z,58.79
2022-12-26T06:59:48.465Z,58.77
2022-12-26T07:02:14.904Z,58.41
2022-12-26T07:04:41.505Z,58.72
2022-12-26T07:07:07.910Z,58.59
2022-12-26T07:09:34.371Z,58.37
2022-12-26T07:12:00.801Z,58.61
2022-12-26T07:14:27.354Z,58.55
2022-12-26T07:16:53.808Z,58.25
2022-12-26T07:19:20.396Z,58.56
2022-12-26T07:21:46.814Z,58.40
2022-12-26T07:24:17.442Z,58.40
2022-12-26T07:26:44.726Z,58.47
2022-12-26T07:29:12.314Z,58.54
2022-12-26T07:31:39.130Z,58.53
2022-12-26T07:34:05.564Z,58.55
2022-12-26T07:36:32.203Z,58.89
2022-12-26T07:38:58.598Z,59.16
2022-12-26T07:41:54.232Z,59.09
2022-12-26T07:44:20.644Z,59.45
2022-12-26T07:46:47.047Z,59.18
2022-12-26T07:49:13.729Z,59.03
2022-12-26T07:51:40.978Z,59.27
2022-12-26T07:54:11.386Z,58.86
2022-12-26T07:56:38.325Z,58.67
2022-12-26T07:59:04.743Z,58.88
2022-12-26T08:01:31.432Z,58.87
2022-12-26T08:03:58.020Z,59.49
2022-12-26T08:06:24.603Z,59.25
2022-12-26T08:08:51.633Z,58.92
2022-12-26T08:11:19.587Z,58.51
2022-12-26T08:13:46.182Z,58.05
2022-12-26T08:16:13.706Z,57.82
2022-12-26T08:18:40.560Z,57.63
2022-12-26T08:21:07.637Z,57.89
2022-12-26T08:23:34.459Z,57.83
2022-12-26T08:26:11.336Z,57.74
2022-12-26T08:28:37.862Z,57.45
2022-12-26T08:31:08.281Z,57.32
2022-12-26T08:33:35.663Z,57.66
2022-12-26T08:36:03.465Z,57.45
2022-12-26T08:38:31.769Z,57.71
2022-12-26T08:41:00.256Z,57.32
2022-12-26T08:46:13.306Z,57.24
2022-12-26T08:48:40.459Z,57.17
2022-12-26T08:51:09.114Z,57.39
2022-12-26T08:53:36.415Z,57.53
2022-12-26T08:56:04.146Z,57.65
2022-12-26T08:58:36.755Z,57.68
2022-12-26T09:01:13.783Z,57.49
2022-12-26T09:03:40.638Z,57.33
2022-12-26T09:06:07.468Z,57.23
2022-12-26T09:08:35.026Z,57.62
2022-12-26T09:11:02.688Z,57.21
2022-12-26T09:13:29.083Z,57.10
2022-12-26T09:15:55.511Z,57.02
2022-12-26T09:18:22.755Z,57.13
2022-12-26T09:20:49.152Z,56.98
2022-12-26T09:23:15.576Z,57.13
2022-12-26T09:25:42.041Z,57.12
2022-12-26T09:28:08.574Z,56.71
2022-12-26T09:30:37.081Z,56.57
2022-12-26T09:33:07.839Z,57.02
2022-12-26T09:35:34.229Z,56.97
2022-12-26T09:38:01.356Z,56.87
2022-12-26T09:40:32.132Z,56.71
2022-12-26T09:43:04.674Z,56.85
2022-12-26T09:45:45.550Z,57.16
2022-12-26T09:48:19.605Z,56.96
2022-12-26T09:50:49.208Z,56.67
2022-12-26T09:53:18.227Z,56.53
2022-12-26T09:55:53.387Z,56.74
2022-12-26T09:58:25.373Z,56.57
2022-12-26T10:00:57.593Z,56.94
2022-12-26T10:03:24.494Z,56.92
2022-12-26T10:05:57.857Z,56.95
2022-12-26T10:08:43.075Z,56.77
2022-12-26T10:11:15.606Z,56.58
2022-12-26T10:13:48.259Z,56.31
2022-12-26T10:16:17.274Z,56.85
2022-12-26T10:18:52.819Z,57.02
2022-12-26T10:21:27.150Z,56.72
2022-12-26T10:24:01.698Z,56.94
2022-12-26T10:26:34.137Z,56.71
2022-12-26T10:29:03.379Z,56.91
2022-12-26T10:31:35.027Z,56.54
2022-12-26T10:34:08.783Z,56.50
2022-12-26T10:36:39.786Z,56.54
2022-12-26T10:39:12.247Z,56.46
2022-12-26T10:41:50.268Z,56.43
2022-12-26T10:44:16.885Z,56.22
2022-12-26T10:47:09.487Z,56.51
2022-12-26T10:49:36.015Z,55.47
2022-12-26T10:52:03.050Z,55.30
2022-12-26T10:54:29.983Z,55.66
2022-12-26T10:56:57.669Z,54.80
2022-12-26T10:59:30.589Z,55.44
2022-12-26T11:02:10.957Z,56.17
2022-12-26T11:05:10.355Z,55.56
2022-12-26T11:07:25.082Z,54.85
2022-12-26T11:09:55.977Z,55.92
2022-12-26T11:12:22.412Z,54.41
2022-12-26T11:14:49.064Z,54.42
2022-12-26T11:17:25.391Z,54.93
2022-12-26T11:20:09.566Z,55.34
2022-12-26T11:22:36.000Z,54.82
2022-12-26T11:25:17.805Z,54.12
2022-12-26T11:27:46.432Z,53.61
2022-12-26T11:30:28.235Z,54.73
2022-12-26T11:33:08.368Z,53.60
2022-12-26T11:35:45.762Z,53.01
2022-12-26T11:38:39.116Z,52.59
2022-12-26T11:41:33.363Z,50.05
2022-12-26T11:44:13.350Z,52.33
2022-12-26T11:46:41.401Z,52.71
2022-12-26T11:49:17.215Z,51.87
2022-12-26T11:51:47.771Z,51.62
2022-12-26T11:54:17.289Z,52.25
2022-12-26T11:56:43.783Z,51.89
2022-12-26T11:59:21.022Z,51.56
2022-12-26T12:01:49.924Z,50.35
2022-12-26T12:04:17.385Z,52.39
2022-12-26T12:07:06.033Z,50.70
2022-12-26T12:09:45.167Z,52.27
2022-12-26T12:12:30.918Z,50.90
2022-12-26T12:15:10.186Z,51.87
2022-12-26T12:17:59.932Z,51.28
2022-12-26T12:20:30.276Z,51.66
2022-12-26T12:23:05.796Z,51.55
2022-12-26T12:25:47.343Z,50.38
2022-12-26T12:28:16.519Z,50.26
2022-12-26T12:30:53.059Z,48.71
2022-12-26T12:33:26.064Z,49.50
2022-12-26T12:35:52.449Z,50.29
2022-12-26T12:38:24.794Z,51.33
2022-12-26T12:40:54.378Z,51.59
2022-12-26T12:43:31.443Z,50.87
2022-12-26T12:46:00.945Z,50.98
2022-12-26T12:48:30.683Z,50.61
2022-12-26T12:51:05.033Z,50.74
2022-12-26T12:53:31.436Z,51.70
2022-12-26T12:56:00.675Z,51.41
2022-12-26T12:58:33.075Z,50.29
2022-12-26T13:01:02.099Z,52.43
2022-12-26T13:03:45.566Z,51.61
2022-12-26T13:06:11.978Z,51.53
2022-12-26T13:08:41.544Z,49.58
2022-12-26T13:11:15.328Z,50.58
2022-12-26T13:13:53.850Z,50.80
2022-12-26T13:16:24.110Z,50.74
2022-12-26T13:18:56.019Z,49.91
2022-12-26T13:21:22.802Z,49.86
2022-12-26T13:24:14.001Z,50.07
2022-12-26T13:26:42.757Z,50.78
2022-12-26T13:29:13.125Z,51.32
2022-12-26T13:31:40.482Z,49.54
2022-12-26T13:34:11.529Z,49.30
2022-12-26T13:36:37.908Z,49.97
2022-12-26T13:39:04.342Z,51.07
2022-12-26T13:41:50.112Z,51.32
2022-12-26T13:44:19.248Z,52.07
2022-12-26T13:46:45.617Z,49.81
2022-12-26T13:49:29.236Z,51.00
2022-12-26T13:51:59.895Z,51.06
2022-12-26T13:54:27.536Z,50.99
2022-12-26T13:56:53.902Z,50.71
2022-12-26T13:59:32.112Z,50.29
2022-12-26T14:02:12.161Z,50.62
2022-12-26T14:04:48.261Z,50.31
2022-12-26T14:07:17.467Z,50.90
2022-12-26T14:09:58.781Z,50.35
2022-12-26T14:12:25.263Z,50.80
2022-12-26T14:15:00.751Z,51.27
2022-12-26T14:17:41.258Z,50.25
2022-12-26T14:20:19.854Z,50.30
2022-12-26T14:23:07.103Z,50.20
2022-12-26T14:25:59.701Z,50.87
2022-12-26T14:28:52.340Z,50.54
2022-12-26T14:31:27.025Z,51.15
2022-12-26T14:34:14.579Z,51.69
2022-12-26T14:36:48.627Z,51.25
2022-12-26T14:39:25.342Z,51.68
2022-12-26T14:42:25.603Z,52.20
2022-12-26T14:44:59.763Z,51.88
2022-12-26T14:47:37.194Z,52.56
2022-12-26T14:50:22.257Z,52.64
2022-12-26T14:52:49.940Z,52.86
2022-12-26T14:55:35.007Z,53.11
2022-12-26T14:58:25.419Z,53.12
2022-12-26T15:00:52.489Z,53.17
2022-12-26T15:03:28.402Z,53.71
2022-12-26T15:05:59.149Z,53.53
2022-12-26T15:08:54.279Z,54.03
2022-12-26T15:11:32.999Z,54.21
2022-12-26T15:14:14.759Z,54.09
2022-12-26T15:16:46.955Z,54.24
2022-12-26T15:19:31.921Z,54.27
2022-12-26T15:22:07.456Z,54.57
2022-12-26T15:25:20.540Z,54.44
2022-12-26T15:28:02.337Z,54.78
2022-12-26T15:30:31.779Z,54.42
2022-12-26T15:33:10.483Z,54.47
2022-12-26T15:35:39.989Z,54.50
2022-12-26T15:38:25.152Z,54.15
2022-12-26T15:40:59.944Z,54.10
2022-12-26T15:43:35.667Z,54.17
2022-12-26T15:46:05.208Z,54.08
2022-12-26T15:48:34.663Z,53.79
2022-12-26T15:51:27.517Z,53.53
2022-12-26T15:54:12.601Z,53.51
2022-12-26T15:56:46.861Z,53.61
2022-12-26T15:59:31.929Z,53.71
2022-12-26T16:02:00.114Z,53.48
2022-12-26T16:04:35.292Z,53.25
2022-12-26T16:07:16.989Z,53.52
2022-12-26T16:09:44.799Z,53.46
2022-12-26T16:12:28.320Z,53.34
2022-12-26T16:15:09.775Z,53.54
2022-12-26T16:17:36.993Z,53.61
2022-12-26T16:20:38.830Z,53.01
2022-12-26T16:23:05.322Z,53.08
2022-12-26T16:25:31.767Z,53.07
2022-12-26T16:27:59.906Z,53.11
2022-12-26T16:30:27.676Z,53.10
2022-12-26T16:32:54.900Z,53.39
2022-12-26T16:35:21.361Z,53.17
2022-12-26T16:37:48.148Z,53.43
2022-12-26T16:40:23.133Z,53.13
2022-12-26T16:43:00.904Z,53.46
2022-12-26T16:45:28.944Z,53.41
2022-12-26T16:47:55.590Z,53.24
2022-12-26T16:50:24.095Z,53.59
2022-12-26T16:53:00.315Z,53.20
